Time;durP1;ratioP1;P1;durP2;ratioP2;P2;SDS_P1;SDS_P2;PMS_P1;PMS_P2;Temp;Humidity;BMP_temperature;BMP_pressure;BME280_temperature;BME280_humidity;BME280_pressure;Samples;Min_cycle;Max_cycle;Signal;HPM_P1;HPM_P2
2022/03/31 00:00:03;;;;;;;30.90;20.90;;;;;;;5.18;86.84;98508.48;108420;1284;138019;-59
2022/03/31 00:02:39;;;;;;;31.40;21.50;;;;;;;5.23;87.00;98502.60;108580;1284;22451;-60
2022/03/31 00:05:08;;;;;;;30.20;19.80;;;;;;;5.28;87.24;98502.59;108414;1284;138627;-59
2022/03/31 00:07:56;;;;;;;27.90;20.70;;;;;;;5.35;87.21;98503.86;108570;1283;22413;-59
2022/03/31 00:10:29;;;;;;;30.10;19.40;;;;;;;5.41;87.16;98505.19;108556;1283;22641;-59
2022/03/31 00:12:59;;;;;;;29.30;21.00;;;;;;;5.43;87.45;98507.87;108405;1284;140476;-60
2022/03/31 00:15:28;;;;;;;31.90;21.60;;;;;;;5.45;87.13;98487.42;108558;1282;22523;-60
2022/03/31 00:17:58;;;;;;;30.90;21.30;;;;;;;5.47;87.23;98477.56;108477;1284;139385;-60
2022/03/31 00:20:35;;;;;;;31.70;21.00;;;;;;;5.49;87.04;98476.38;108562;1284;22308;-59
2022/03/31 00:23:05;;;;;;;27.90;20.70;;;;;;;5.48;86.62;98478.97;108445;1283;138808;-60
2022/03/31 00:25:35;;;;;;;34.90;22.10;;;;;;;5.46;86.79;98478.90;108536;1284;22528;-59
2022/03/31 00:28:03;;;;;;;30.20;20.80;;;;;;;5.44;86.88;98474.07;108558;1283;22412;-60
2022/03/31 00:30:34;;;;;;;29.00;20.20;;;;;;;5.43;86.83;98481.93;108436;1283;138238;-59
2022/03/31 00:33:02;;;;;;;28.70;20.40;;;;;;;5.41;86.53;98492.70;108582;1283;23256;-60
2022/03/31 00:35:32;;;;;;;33.20;21.10;;;;;;;5.40;86.52;98487.98;108623;1277;139170;-59
2022/03/31 00:38:00;;;;;;;29.80;19.80;;;;;;;5.40;87.02;98494.20;109218;1277;22403;-59
2022/03/31 00:40:29;;;;;;;24.70;16.60;;;;;;;5.39;86.91;98495.05;109225;1277;22981;-60
2022/03/31 00:42:58;;;;;;;22.00;15.80;;;;;;;5.38;87.06;98496.83;109124;1277;137812;-60
2022/03/31 00:45:51;;;;;;;20.70;15.30;;;;;;;5.41;87.03;98501.79;109226;1277;22488;-60
2022/03/31 00:48:20;;;;;;;20.00;15.10;;;;;;;5.45;87.21;98501.52;109134;1277;138865;-60
2022/03/31 00:50:50;;;;;;;21.80;15.20;;;;;;;5.49;87.45;98509.13;109255;1277;22357;-60
2022/03/31 00:53:18;;;;;;;20.90;16.00;;;;;;;5.51;87.66;98512.55;109115;1277;138347;-59
2022/03/31 00:55:57;;;;;;;23.20;15.70;;;;;;;5.53;87.49;98511.40;109198;1277;22427;-63
2022/03/31 00:58:25;;;;;;;22.00;15.00;;;;;;;5.56;87.22;98518.09;109035;1277;22242;-63
2022/03/31 01:00:54;;;;;;;19.20;14.80;;;;;;;5.58;87.70;98511.70;108910;1277;138156;-63
2022/03/31 01:03:22;;;;;;;23.10;16.00;;;;;;;5.61;87.21;98496.06;109184;1277;22450;-63
2022/03/31 01:05:50;;;;;;;20.20;15.10;;;;;;;5.64;87.60;98496.79;109119;1277;138021;-63
2022/03/31 01:08:21;;;;;;;22.90;15.80;;;;;;;5.66;87.51;98501.69;109183;1277;22521;-63
2022/03/31 01:10:52;;;;;;;22.60;16.40;;;;;;;5.68;87.60;98497.33;109119;1277;138388;-62
2022/03/31 01:13:21;;;;;;;28.30;17.30;;;;;;;5.71;87.50;98483.85;109265;1277;23109;-64
2022/03/31 01:15:50;;;;;;;22.80;15.70;;;;;;;5.72;87.40;98481.91;109208;1277;23030;-63
2022/03/31 01:18:18;;;;;;;27.90;17.20;;;;;;;5.72;87.10;98475.06;109070;1277;138057;-63
2022/03/31 01:20:46;;;;;;;26.40;16.30;;;;;;;5.72;87.27;98466.95;109265;1277;22457;-63
2022/03/31 01:23:15;;;;;;;25.50;16.30;;;;;;;5.72;86.91;98457.70;109124;1277;139950;-62
2022/03/31 01:25:43;;;;;;;25.20;16.10;;;;;;;5.70;86.85;98455.41;108200;1275;25214;-60
2022/03/31 01:28:11;;;;;;;21.90;15.50;;;;;;;5.68;87.00;98461.66;109230;1276;23538;-59
2022/03/31 01:30:43;;;;;;;23.00;16.40;;;;;;;5.65;86.76;98479.52;109128;1277;138197;-60
2022/03/31 01:33:14;;;;;;;24.70;16.90;;;;;;;5.63;86.94;98489.75;109250;1277;22424;-59
2022/03/31 01:35:43;;;;;;;24.30;16.50;;;;;;;5.63;87.14;98478.40;109075;1277;139717;-59
2022/03/31 01:38:11;;;;;;;25.60;16.90;;;;;;;5.62;87.07;98464.02;109022;1278;22675;-59
2022/03/31 01:40:40;;;;;;;25.60;17.40;;;;;;;5.62;87.11;98463.77;109003;1277;138436;-59
2022/03/31 01:43:09;;;;;;;26.40;16.90;;;;;;;5.62;87.09;98473.27;109023;1278;22445;-59
2022/03/31 01:45:37;;;;;;;23.70;16.60;;;;;;;5.62;87.20;98469.86;109018;1278;22406;-60
2022/03/31 01:48:07;;;;;;;28.10;18.20;;;;;;;5.62;86.96;98465.12;109036;1277;138167;-60
2022/03/31 01:50:36;;;;;;;28.00;18.20;;;;;;;5.63;86.92;98461.11;109212;1277;22394;-59
2022/03/31 01:53:05;;;;;;;29.30;18.70;;;;;;;5.64;87.11;98460.47;109107;1277;139403;-59
2022/03/31 01:55:33;;;;;;;32.00;18.10;;;;;;;5.63;87.02;98454.68;109215;1277;22455;-59
2022/03/31 01:58:02;;;;;;;26.50;17.70;;;;;;;5.62;87.19;98448.36;109191;1277;22629;-59
2022/03/31 02:00:30;;;;;;;28.20;17.30;;;;;;;5.61;86.85;98440.79;109071;1277;138581;-60
2022/03/31 02:02:59;;;;;;;25.00;16.90;;;;;;;5.60;87.00;98429.80;109115;1277;22403;-60
2022/03/31 02:05:28;;;;;;;28.40;18.00;;;;;;;5.60;86.97;98421.80;109130;1277;139751;-59
2022/03/31 02:07:56;;;;;;;24.00;18.00;;;;;;;5.60;87.22;98424.87;109232;1277;23664;-60
2022/03/31 02:10:44;;;;;;;31.30;18.20;;;;;;;5.60;87.42;98421.36;109138;1277;140409;-60
2022/03/31 02:13:13;;;;;;;26.60;17.60;;;;;;;5.61;87.33;98419.27;109211;1277;22473;-59
2022/03/31 02:15:54;;;;;;;25.20;17.00;;;;;;;5.61;87.55;98411.55;109203;1277;22407;-59
2022/03/31 02:18:23;;;;;;;27.80;18.20;;;;;;;5.61;87.21;98406.05;109086;1277;139136;-59
2022/03/31 02:20:51;;;;;;;25.50;17.70;;;;;;;5.61;87.37;98397.34;109217;1277;22406;-60
2022/03/31 02:23:20;;;;;;;27.10;18.90;;;;;;;5.62;87.26;98395.02;109117;1277;138991;-60
2022/03/31 02:25:49;;;;;;;27.90;19.70;;;;;;;5.60;87.24;98389.77;109002;1278;22461;-60
2022/03/31 02:28:18;;;;;;;28.60;18.00;;;;;;;5.60;87.09;98388.08;109025;1278;23235;-59
2022/03/31 02:30:46;;;;;;;28.30;19.20;;;;;;;5.59;87.47;98382.29;109091;1277;138636;-59
2022/03/31 02:33:15;;;;;;;28.50;17.70;;;;;;;5.59;87.38;98376.08;109186;1277;22428;-59
2022/03/31 02:35:43;;;;;;;29.90;20.40;;;;;;;5.59;87.37;98369.53;108044;1277;139134;-62
2022/03/31 02:38:12;;;;;;;28.00;19.20;;;;;;;5.60;87.41;98359.27;109185;1277;23025;-62
2022/03/31 02:40:41;;;;;;;29.50;18.60;;;;;;;5.57;87.27;98353.78;109084;1277;140095;-62
2022/03/31 02:43:20;;;;;;;27.10;19.20;;;;;;;5.53;87.14;98348.75;109219;1277;22414;-63
2022/03/31 02:45:48;;;;;;;27.90;20.10;;;;;;;5.50;87.19;98345.00;109193;1277;22612;-63
2022/03/31 02:48:17;;;;;;;31.70;19.80;;;;;;;5.46;87.20;98343.61;109016;1277;138423;-63
2022/03/31 02:50:46;;;;;;;27.30;18.40;;;;;;;5.42;87.73;98345.45;109027;1278;22525;-63
2022/03/31 02:56:01;;;;;;;28.40;18.10;;;;;;;5.36;87.77;98354.19;109177;1277;22622;-63
2022/03/31 02:58:29;;;;;;;26.70;19.70;;;;;;;5.34;88.04;98361.55;109218;1277;22459;-63
2022/03/31 03:00:58;;;;;;;27.80;17.80;;;;;;;5.33;87.95;98359.42;109106;1277;138772;-63
2022/03/31 03:03:29;;;;;;;25.10;17.90;;;;;;;5.32;88.25;98351.09;109234;1277;22497;-63
2022/03/31 03:05:58;;;;;;;28.20;19.20;;;;;;;5.31;88.40;98348.27;107607;1277;139056;-59
2022/03/31 03:08:27;;;;;;;25.70;17.40;;;;;;;5.30;88.68;98353.17;109208;1277;22439;-60
2022/03/31 03:10:57;;;;;;;28.00;18.60;;;;;;;5.30;88.84;98351.55;109092;1277;139927;-59
2022/03/31 03:13:26;;;;;;;25.30;18.10;;;;;;;5.31;88.70;98353.28;109139;1277;22497;-59
2022/03/31 03:15:54;;;;;;;27.70;17.40;;;;;;;5.33;88.79;98362.91;109186;1277;23510;-59
2022/03/31 03:18:23;;;;;;;28.70;17.80;;;;;;;5.35;88.92;98361.95;109093;1277;139159;-59
2022/03/31 03:20:51;;;;;;;26.30;17.70;;;;;;;5.38;89.14;98362.46;109219;1276;22452;-59
2022/03/31 03:23:22;;;;;;;24.40;16.80;;;;;;;5.40;89.07;98363.90;109060;1277;139410;-59
2022/03/31 03:25:50;;;;;;;25.10;17.80;;;;;;;5.41;88.94;98359.82;109206;1277;22394;-60
2022/03/31 03:28:19;;;;;;;26.30;17.60;;;;;;;5.42;88.90;98354.43;109173;1276;22257;-59
2022/03/31 03:30:47;;;;;;;26.70;16.40;;;;;;;5.45;88.89;98354.36;109057;1277;139225;-59
2022/03/31 03:33:15;;;;;;;24.20;16.50;;;;;;;5.47;89.05;98349.89;109195;1277;22435;-60
2022/03/31 03:35:43;;;;;;;26.60;17.10;;;;;;;5.49;89.34;98343.73;109088;1277;138783;-59
2022/03/31 03:38:12;;;;;;;28.50;19.50;;;;;;;5.52;89.38;98340.05;109196;1277;22228;-59
2022/03/31 03:40:41;;;;;;;26.40;18.50;;;;;;;5.54;89.27;98336.45;109084;1277;138764;-60
2022/03/31 03:43:10;;;;;;;24.60;17.50;;;;;;;5.55;89.22;98335.10;109217;1277;22405;-59
2022/03/31 03:45:41;;;;;;;23.80;16.70;;;;;;;5.56;89.38;98326.86;109194;1277;23236;-60
2022/03/31 03:48:11;;;;;;;27.20;17.90;;;;;;;5.58;89.71;98324.66;109107;1277;139265;-60
2022/03/31 03:50:40;;;;;;;22.70;15.20;;;;;;;5.58;89.67;98318.79;109180;1277;23265;-59
2022/03/31 03:53:09;;;;;;;25.70;17.10;;;;;;;5.59;89.30;98317.98;109075;1277;138446;-59
2022/03/31 03:55:37;;;;;;;25.50;17.80;;;;;;;5.58;89.55;98314.46;109140;1277;23397;-59
2022/03/31 03:58:06;;;;;;;27.20;18.00;;;;;;;5.57;89.57;98304.06;109206;1277;22551;-59
2022/03/31 04:00:35;;;;;;;24.80;17.40;;;;;;;5.55;89.47;98299.89;109004;1277;138906;-59
2022/03/31 04:03:05;;;;;;;23.70;16.60;;;;;;;5.54;89.91;98297.12;109002;1280;22443;-59
2022/03/31 04:05:33;;;;;;;26.00;18.00;;;;;;;5.52;89.99;98290.92;108246;1277;139977;-59
2022/03/31 04:08:04;;;;;;;23.50;15.70;;;;;;;5.50;89.94;98282.92;104663;1277;24164;-60
2022/03/31 04:10:34;;;;;;;22.60;15.50;;;;;;;5.50;90.07;98277.46;109124;1277;23245;-59
2022/03/31 04:13:03;;;;;;;26.40;15.90;;;;;;;5.51;90.02;98271.46;109108;1276;137928;-59
2022/03/31 04:15:31;;;;;;;26.10;15.30;;;;;;;5.52;90.23;98267.33;109171;1277;22401;-59
2022/03/31 04:18:00;;;;;;;22.20;15.90;;;;;;;5.53;90.15;98265.92;109090;1277;138529;-59
2022/03/31 04:20:28;;;;;;;19.70;15.00;;;;;;;5.55;90.33;98266.48;109202;1277;22454;-60
2022/03/31 04:22:56;;;;;;;24.60;16.50;;;;;;;5.55;90.44;98264.88;109047;1277;138319;-60
2022/03/31 04:25:25;;;;;;;25.60;16.60;;;;;;;5.55;90.39;98260.02;109053;1279;22394;-60
2022/03/31 04:27:54;;;;;;;25.30;17.10;;;;;;;5.57;90.56;98257.39;109174;1277;22435;-60
2022/03/31 04:30:22;;;;;;;22.50;15.90;;;;;;;5.58;90.67;98254.91;109066;1277;139004;-59
2022/03/31 04:32:52;;;;;;;22.10;16.00;;;;;;;5.59;90.79;98250.86;109211;1277;22460;-59
2022/03/31 04:35:20;;;;;;;26.70;17.70;;;;;;;5.60;90.60;98250.77;109083;1277;138722;-60
2022/03/31 04:37:48;;;;;;;27.70;17.30;;;;;;;5.62;90.71;98252.20;109093;1278;22411;-59
2022/03/31 04:40:16;;;;;;;23.10;16.40;;;;;;;5.62;90.53;98246.36;109115;1277;23416;-59
2022/03/31 04:42:46;;;;;;;26.60;17.50;;;;;;;5.62;90.54;98241.44;109029;1277;138162;-59
2022/03/31 04:45:14;;;;;;;29.40;17.70;;;;;;;5.62;90.46;98237.60;109018;1277;23515;-59
2022/03/31 04:47:42;;;;;;;23.60;16.40;;;;;;;5.62;90.36;98233.71;109070;1277;138375;-60
2022/03/31 04:50:12;;;;;;;26.30;17.00;;;;;;;5.60;90.37;98224.41;109198;1275;23151;-59
2022/03/31 04:52:42;;;;;;;28.40;17.20;;;;;;;5.60;90.59;98224.40;109160;1277;22529;-59
2022/03/31 04:55:10;;;;;;;26.50;18.20;;;;;;;5.58;90.28;98222.98;109091;1277;138987;-59
2022/03/31 04:57:39;;;;;;;28.90;18.50;;;;;;;5.58;90.24;98223.24;109197;1277;22484;-59
2022/03/31 05:00:08;;;;;;;30.80;17.90;;;;;;;5.57;90.46;98222.48;109053;1277;138427;-59
2022/03/31 05:02:38;;;;;;;20.50;15.40;;;;;;;5.56;90.04;98223.72;109189;1277;23165;-60
2022/03/31 05:05:07;;;;;;;21.80;16.90;;;;;;;5.55;90.18;98224.13;109008;1277;138976;-60
2022/03/31 05:07:36;;;;;;;25.40;17.00;;;;;;;5.55;90.19;98231.31;109159;1277;24728;-59
2022/03/31 05:10:05;;;;;;;23.60;16.30;;;;;;;5.54;90.23;98231.04;109179;1277;22589;-59
2022/03/31 05:12:34;;;;;;;27.90;17.90;;;;;;;5.54;90.20;98227.42;109052;1277;140007;-59
2022/03/31 05:15:03;;;;;;;25.50;16.70;;;;;;;5.53;90.00;98228.91;109187;1277;22447;-59
2022/03/31 05:17:52;;;;;;;24.70;16.80;;;;;;;5.52;90.37;98233.89;109059;1277;138431;-60
2022/03/31 05:20:22;;;;;;;21.80;16.10;;;;;;;5.52;89.98;98234.15;108992;1280;22441;-59
2022/03/31 05:22:50;;;;;;;23.90;15.90;;;;;;;5.50;90.05;98231.70;109057;1277;138862;-59
2022/03/31 05:25:18;;;;;;;23.30;15.80;;;;;;;5.51;90.43;98234.42;109159;1277;22446;-59
2022/03/31 05:27:47;;;;;;;24.40;17.80;;;;;;;5.52;90.18;98229.88;109178;1277;22428;-59
2022/03/31 05:30:18;;;;;;;25.50;15.70;;;;;;;5.50;90.02;98231.00;109069;1277;139176;-59
2022/03/31 05:32:47;;;;;;;23.50;16.30;;;;;;;5.50;90.06;98233.86;109156;1277;22407;-59
2022/03/31 05:35:15;;;;;;;19.60;15.40;;;;;;;5.51;90.20;98228.84;109023;1277;138480;-59
2022/03/31 05:37:43;;;;;;;22.90;15.10;;;;;;;5.52;90.51;98229.72;109074;1278;22469;-59
2022/03/31 05:40:11;;;;;;;22.90;16.40;;;;;;;5.53;90.28;98229.30;109073;1278;22422;-59
2022/03/31 05:42:40;;;;;;;29.70;16.50;;;;;;;5.55;90.55;98225.00;109022;1277;138172;-59
2022/03/31 05:45:09;;;;;;;21.20;15.50;;;;;;;5.56;90.18;98224.58;109200;1277;22257;-60
2022/03/31 05:47:40;;;;;;;28.60;18.60;;;;;;;5.59;90.11;98224.50;109019;1277;138140;-59
2022/03/31 05:50:09;;;;;;;27.20;18.00;;;;;;;5.60;90.35;98225.11;109164;1277;22403;-59
2022/03/31 05:52:42;;;;;;;22.80;15.70;;;;;;;5.63;90.02;98224.20;109152;1277;23180;-59
2022/03/31 05:55:12;;;;;;;25.80;15.90;;;;;;;5.65;90.24;98225.61;109071;1277;138612;-59
2022/03/31 05:57:41;;;;;;;21.30;15.60;;;;;;;5.67;90.12;98228.55;109182;1277;22440;-59
2022/03/31 06:00:13;;;;;;;24.70;17.90;;;;;;;5.70;89.86;98231.28;109077;1277;139680;-60
2022/03/31 06:02:42;;;;;;;22.50;15.10;;;;;;;5.73;89.77;98226.51;109124;1277;22441;-59
2022/03/31 06:05:19;;;;;;;22.20;15.10;;;;;;;5.76;89.99;98224.10;108943;1277;138822;-59
2022/03/31 06:07:48;;;;;;;25.60;15.80;;;;;;;5.79;89.93;98224.20;109160;1277;22436;-59
2022/03/31 06:10:16;;;;;;;22.80;13.90;;;;;;;5.83;89.86;98220.45;109182;1277;22275;-59
2022/03/31 06:12:45;;;;;;;19.70;14.50;;;;;;;5.87;89.76;98212.46;109063;1277;138890;-60
2022/03/31 06:15:15;;;;;;;20.80;15.00;;;;;;;5.94;89.69;98208.20;109023;1277;24840;-59
2022/03/31 06:17:56;;;;;;;23.20;17.60;;;;;;;6.03;90.17;98200.26;104587;1277;139454;-61
2022/03/31 06:20:25;;;;;;;23.80;17.10;;;;;;;6.14;90.19;98193.34;109243;1277;23384;-60
2022/03/31 06:22:53;;;;;;;23.20;16.10;;;;;;;6.25;90.03;98194.43;109146;1275;139336;-60
2022/03/31 06:25:22;;;;;;;25.70;17.80;;;;;;;6.36;89.95;98194.92;109278;1277;23326;-61
2022/03/31 06:27:50;;;;;;;25.10;17.10;;;;;;;6.46;89.62;98201.20;109234;1277;22441;-59
2022/03/31 06:30:18;;;;;;;24.30;17.10;;;;;;;6.55;89.59;98202.96;109144;1277;139139;-59
2022/03/31 06:32:47;;;;;;;22.90;16.70;;;;;;;6.64;89.01;98201.98;109251;1276;22437;-59
2022/03/31 06:35:15;;;;;;;23.40;17.50;;;;;;;6.73;88.57;98203.20;109111;1277;138383;-59
2022/03/31 06:37:45;;;;;;;25.00;17.10;;;;;;;6.84;88.47;98195.86;109271;1277;22375;-60
2022/03/31 06:40:14;;;;;;;25.50;17.10;;;;;;;6.93;88.27;98197.58;109281;1277;22438;-59
2022/03/31 06:42:44;;;;;;;23.70;17.30;;;;;;;7.02;87.28;98194.45;109150;1277;138537;-59
2022/03/31 06:45:15;;;;;;;23.90;16.70;;;;;;;7.08;86.63;98187.36;109275;1277;22424;-62
2022/03/31 06:48:00;;;;;;;24.00;17.00;;;;;;;7.16;86.81;98178.39;109158;1276;138342;-62
2022/03/31 06:50:33;;;;;;;22.60;16.50;;;;;;;7.22;86.55;98182.41;109301;1277;23275;-63
2022/03/31 06:53:01;;;;;;;25.40;16.90;;;;;;;7.29;86.30;98183.55;109064;1277;139602;-64
2022/03/31 06:55:29;;;;;;;21.90;15.80;;;;;;;7.39;86.23;98181.45;109283;1277;22504;-63
2022/03/31 06:57:58;;;;;;;21.10;15.80;;;;;;;7.49;86.07;98185.36;109257;1277;22451;-64
2022/03/31 07:00:26;;;;;;;20.10;15.00;;;;;;;7.58;85.79;98185.20;109152;1276;138302;-63
2022/03/31 07:02:55;;;;;;;22.80;15.50;;;;;;;7.68;85.49;98194.02;109269;1277;22447;-63
2022/03/31 07:05:24;;;;;;;20.00;15.30;;;;;;;7.75;85.01;98190.95;109175;1277;138364;-63
2022/03/31 07:07:52;;;;;;;19.20;15.50;;;;;;;7.83;85.18;98191.68;109266;1277;22479;-63
2022/03/31 07:10:24;;;;;;;18.60;13.70;;;;;;;7.93;85.00;98189.51;109249;1277;22442;-63
2022/03/31 07:13:00;;;;;;;21.60;16.00;;;;;;;8.03;84.85;98192.05;109156;1277;139685;-63
2022/03/31 07:15:31;;;;;;;23.90;16.60;;;;;;;8.11;84.42;98189.04;109253;1277;22410;-63
2022/03/31 07:18:03;;;;;;;22.50;16.20;;;;;;;8.19;83.47;98186.87;109153;1277;138394;-63
2022/03/31 07:20:33;;;;;;;22.40;18.10;;;;;;;8.25;83.39;98179.23;109099;1278;22241;-63
2022/03/31 07:23:25;;;;;;;22.00;16.60;;;;;;;8.32;83.04;98176.70;109127;1277;139864;-63
2022/03/31 07:25:54;;;;;;;22.10;15.10;;;;;;;8.38;82.85;98177.86;107883;1277;24126;-59
2022/03/31 07:28:23;;;;;;;20.30;15.50;;;;;;;8.42;82.34;98172.82;109279;1277;22435;-58
2022/03/31 07:30:53;;;;;;;23.40;15.30;;;;;;;8.47;81.94;98175.20;109136;1277;138715;-58
2022/03/31 07:33:21;;;;;;;27.10;17.60;;;;;;;8.51;81.80;98170.89;109253;1277;23370;-59
2022/03/31 07:35:49;;;;;;;21.20;16.40;;;;;;;8.56;81.75;98169.45;109053;1277;138180;-59
2022/03/31 07:38:17;;;;;;;24.80;16.50;;;;;;;8.63;81.92;98165.42;109189;1277;22530;-58
2022/03/31 07:40:46;;;;;;;22.70;18.80;;;;;;;8.69;81.47;98160.98;109238;1277;22432;-61
2022/03/31 07:43:14;;;;;;;25.50;19.00;;;;;;;8.74;80.87;98167.52;109153;1277;139236;-59
2022/03/31 07:45:42;;;;;;;26.10;20.00;;;;;;;8.75;80.80;98169.81;109254;1277;22459;-59
2022/03/31 07:48:15;;;;;;;27.10;20.60;;;;;;;8.77;80.97;98163.17;109169;1277;137391;-58
2022/03/31 07:50:43;;;;;;;31.90;22.70;;;;;;;8.83;80.96;98160.14;109294;1275;22511;-59
2022/03/31 07:53:12;;;;;;;27.20;21.50;;;;;;;8.84;79.91;98160.63;109180;1277;138911;-59
2022/03/31 07:55:41;;;;;;;33.10;21.50;;;;;;;8.81;79.82;98157.33;108238;1277;22554;-58
2022/03/31 07:58:10;;;;;;;26.80;20.90;;;;;;;8.79;79.72;98156.21;104841;1277;24012;-59
2022/03/31 08:00:38;;;;;;;27.90;22.00;;;;;;;8.76;79.66;98142.60;109117;1277;138451;-58
2022/03/31 08:03:07;;;;;;;27.60;21.20;;;;;;;8.76;79.90;98142.77;109245;1277;22416;-59
2022/03/31 08:05:38;;;;;;;32.30;20.90;;;;;;;8.79;79.86;98142.09;109180;1277;138333;-60
2022/03/31 08:08:06;;;;;;;32.30;23.60;;;;;;;8.82;79.78;98139.39;109240;1277;22680;-59
2022/03/31 08:10:36;;;;;;;30.60;23.80;;;;;;;8.85;79.63;98135.59;109288;1277;23227;-60
2022/03/31 08:13:04;;;;;;;29.30;22.20;;;;;;;8.87;79.56;98139.98;109143;1277;138663;-59
2022/03/31 08:15:35;;;;;;;30.00;22.00;;;;;;;8.91;79.73;98145.61;109259;1277;22420;-60
2022/03/31 08:18:04;;;;;;;31.00;22.10;;;;;;;8.96;79.69;98149.80;109119;1277;139799;-59
2022/03/31 08:20:33;;;;;;;28.50;20.70;;;;;;;9.04;79.72;98149.22;109257;1277;23195;-59
2022/03/31 08:23:01;;;;;;;28.50;21.40;;;;;;;9.12;79.60;98148.61;109168;1277;140307;-60
2022/03/31 08:25:29;;;;;;;23.70;19.30;;;;;;;9.20;79.44;98150.90;108612;1277;22584;-59
2022/03/31 08:27:58;;;;;;;27.70;20.30;;;;;;;9.31;79.68;98146.64;109253;1277;22591;-59
2022/03/31 08:30:31;;;;;;;28.70;22.70;;;;;;;9.41;79.55;98147.11;109097;1277;137853;-60
2022/03/31 08:32:59;;;;;;;30.10;21.80;;;;;;;9.51;79.28;98147.02;109299;1277;22435;-60
2022/03/31 08:35:28;;;;;;;28.90;22.80;;;;;;;9.60;78.83;98147.05;109078;1278;137678;-59
2022/03/31 08:37:56;;;;;;;32.40;24.00;;;;;;;9.70;78.60;98145.61;109276;1277;22490;-59
2022/03/31 08:40:25;;;;;;;34.50;24.40;;;;;;;9.79;77.95;98141.77;109210;1277;22427;-59
2022/03/31 08:42:53;;;;;;;30.50;22.40;;;;;;;9.86;77.58;98141.75;109155;1277;139465;-60
2022/03/31 08:45:21;;;;;;;28.90;23.00;;;;;;;9.92;77.77;98145.57;109253;1277;22448;-59
2022/03/31 08:47:51;;;;;;;26.80;20.70;;;;;;;10.01;77.98;98146.66;109167;1277;139087;-60
2022/03/31 08:50:21;;;;;;;28.30;22.50;;;;;;;10.12;77.84;98143.29;109225;1277;22472;-59
2022/03/31 08:52:49;;;;;;;25.50;19.80;;;;;;;10.21;77.74;98142.77;109279;1277;22521;-59
2022/03/31 08:55:18;;;;;;;28.30;21.40;;;;;;;10.32;77.63;98136.77;109167;1277;138955;-60
2022/03/31 08:57:50;;;;;;;27.00;22.50;;;;;;;10.42;77.06;98136.45;109269;1277;22468;-59
2022/03/31 09:00:20;;;;;;;30.10;23.60;;;;;;;10.50;76.88;98136.73;109130;1277;139329;-59
2022/03/31 09:02:53;;;;;;;32.10;24.40;;;;;;;10.57;76.46;98136.84;109245;1277;22536;-60
2022/03/31 09:05:21;;;;;;;28.70;24.60;;;;;;;10.65;75.81;98129.46;109072;1278;138358;-60
2022/03/31 09:07:57;;;;;;;27.80;23.60;;;;;;;10.71;75.59;98129.48;109256;1277;22445;-59
2022/03/31 09:10:31;;;;;;;31.40;25.10;;;;;;;10.74;74.96;98126.94;109293;1277;22567;-59
2022/03/31 09:13:02;;;;;;;30.00;25.20;;;;;;;10.76;75.13;98125.98;109139;1277;139119;-59
2022/03/31 09:15:47;;;;;;;29.60;23.10;;;;;;;10.82;75.45;98122.80;109071;1277;22426;-59
2022/03/31 09:18:17;;;;;;;32.60;23.60;;;;;;;10.90;75.28;98119.09;109129;1277;138893;-60
2022/03/31 09:20:50;;;;;;;29.80;22.80;;;;;;;10.99;75.04;98122.55;109254;1277;22430;-59
2022/03/31 09:23:19;;;;;;;28.00;24.20;;;;;;;11.09;75.00;98120.48;109126;1277;140250;-60
2022/03/31 09:25:50;;;;;;;32.50;24.40;;;;;;;11.18;74.85;98120.41;109271;1277;22361;-59
2022/03/31 09:28:20;;;;;;;28.70;24.10;;;;;;;11.25;74.49;98119.83;109243;1277;23242;-60
2022/03/31 09:30:49;;;;;;;32.30;25.20;;;;;;;11.34;74.60;98118.98;109171;1277;139115;-60
2022/03/31 09:36:34;;;;;;;29.50;24.60;;;;;;;11.57;73.93;98120.66;101746;1309;545961;-58
2022/03/31 09:39:05;;;;;;;30.90;25.60;;;;;;;11.65;73.70;98119.61;104903;1277;25300;-59
2022/03/31 09:41:36;;;;;;;30.90;24.40;;;;;;;11.73;73.29;98118.05;109345;1274;137840;-60
2022/03/31 09:44:06;;;;;;;32.10;23.40;;;;;;;11.81;72.88;98114.73;109458;1274;23267;-59
2022/03/31 09:46:38;;;;;;;27.50;21.90;;;;;;;11.88;72.94;98118.08;109412;1274;22455;-59
2022/03/31 09:49:12;;;;;;;26.80;21.50;;;;;;;11.96;72.90;98121.31;109220;1274;161612;-60
2022/03/31 09:51:41;;;;;;;28.10;23.30;;;;;;;12.05;72.63;98117.44;109590;1272;22441;-59
2022/03/31 09:54:10;;;;;;;30.30;24.20;;;;;;;12.12;71.96;98111.17;109502;1272;137319;-59
2022/03/31 09:56:41;;;;;;;26.60;22.90;;;;;;;12.19;72.03;98110.14;109461;1274;22558;-59
2022/03/31 09:59:13;;;;;;;36.50;23.90;;;;;;;12.25;71.83;98107.55;109445;1272;137848;-60
2022/03/31 10:01:54;;;;;;;29.20;22.50;;;;;;;12.32;71.48;98102.10;109555;1272;23227;-59
2022/03/31 10:04:22;;;;;;;29.70;21.60;;;;;;;12.39;71.03;98104.36;109578;1273;23038;-59
2022/03/31 10:06:55;;;;;;;28.30;22.00;;;;;;;12.47;70.67;98102.58;106205;1272;138699;-59
2022/03/31 10:09:23;;;;;;;27.10;22.10;;;;;;;12.52;70.17;98097.92;109546;1272;23236;-59
2022/03/31 10:12:07;;;;;;;25.70;20.70;;;;;;;12.57;69.78;98096.35;109501;1273;137659;-59
2022/03/31 10:15:01;;;;;;;26.80;19.80;;;;;;;12.66;69.76;98093.98;109538;1274;22414;-60
2022/03/31 10:17:30;;;;;;;26.00;20.60;;;;;;;12.74;69.80;98086.41;109367;1273;137952;-59
2022/03/31 10:20:10;;;;;;;25.80;19.40;;;;;;;12.85;69.34;98083.98;109552;1272;22582;-59
2022/03/31 10:25:36;;;;;;;30.50;19.80;;;;;;;13.03;67.90;98074.31;109441;1273;137898;-59
2022/03/31 10:28:22;;;;;;;28.50;19.60;;;;;;;13.13;67.87;98075.85;109578;1271;22454;-60
2022/03/31 10:31:00;;;;;;;24.30;19.00;;;;;;;13.22;67.63;98075.66;109480;1273;137235;-60
2022/03/31 10:33:37;;;;;;;25.50;19.40;;;;;;;13.28;66.97;98075.05;109511;1273;22467;-59
2022/03/31 10:36:10;;;;;;;28.30;19.90;;;;;;;13.35;66.78;98080.64;109395;1271;137705;-60
2022/03/31 10:39:01;;;;;;;26.20;19.00;;;;;;;13.42;66.78;98076.92;109548;1273;22582;-59
2022/03/31 10:41:30;;;;;;;29.30;20.40;;;;;;;13.49;66.27;98074.71;109392;1273;137436;-60
2022/03/31 10:44:13;;;;;;;32.30;22.30;;;;;;;13.57;66.12;98075.05;109471;1274;22664;-60
2022/03/31 10:46:44;;;;;;;30.70;20.50;;;;;;;13.65;66.23;98075.08;109504;1273;23032;-59
2022/03/31 10:49:17;;;;;;;30.70;20.00;;;;;;;13.73;66.00;98068.23;109385;1274;137220;-59
2022/03/31 10:51:46;;;;;;;27.70;19.20;;;;;;;13.80;65.82;98066.95;109513;1274;23094;-60
2022/03/31 10:54:30;;;;;;;27.00;19.20;;;;;;;13.89;65.62;98065.27;109392;1273;137488;-59
2022/03/31 10:57:02;;;;;;;27.00;18.60;;;;;;;14.00;65.32;98065.00;109570;1271;22506;-60
2022/03/31 10:59:34;;;;;;;23.60;18.60;;;;;;;14.07;64.28;98058.79;109408;1273;138541;-60
2022/03/31 11:02:13;;;;;;;27.20;19.80;;;;;;;14.14;64.16;98058.20;109539;1273;23239;-60
2022/03/31 11:04:43;;;;;;;26.30;19.30;;;;;;;14.22;64.09;98054.52;109488;1273;22404;-60
2022/03/31 11:07:16;;;;;;;26.30;18.30;;;;;;;14.29;63.66;98057.28;105515;1274;137588;-60
2022/03/31 11:09:48;;;;;;;24.00;17.60;;;;;;;14.35;63.03;98056.39;105008;1274;24970;-60
2022/03/31 11:12:21;;;;;;;27.70;18.90;;;;;;;14.41;62.45;98061.50;104960;1274;138114;-59
2022/03/31 11:15:00;;;;;;;26.70;17.40;;;;;;;14.46;60.45;98065.08;105015;1274;24237;-60
2022/03/31 11:17:29;;;;;;;27.60;17.70;;;;;;;14.50;60.70;98064.63;109406;1273;137434;-60
2022/03/31 11:19:57;;;;;;;22.10;17.10;;;;;;;14.54;60.85;98059.38;109460;1273;22541;-60
2022/03/31 11:22:27;;;;;;;27.30;16.90;;;;;;;14.57;60.69;98058.02;109545;1274;22693;-60
2022/03/31 11:25:08;;;;;;;25.10;16.40;;;;;;;14.60;60.32;98063.23;109363;1273;137324;-60
2022/03/31 11:27:41;;;;;;;29.90;17.00;;;;;;;14.62;59.65;98069.94;109550;1271;22247;-60
2022/03/31 11:30:10;;;;;;;23.30;16.20;;;;;;;14.63;59.41;98071.48;109392;1273;137480;-60
2022/03/31 11:32:39;;;;;;;22.20;15.00;;;;;;;14.66;59.52;98071.91;109556;1272;23340;-60
2022/03/31 11:35:13;;;;;;;20.80;15.20;;;;;;;14.68;59.58;98076.89;109391;1273;137948;-60